createdAt,value
2019-02-16T00:03:01.014Z,2.70
2019-02-16T00:07:57.127Z,2.70
2019-02-16T00:12:55.506Z,2.60
2019-02-16T00:17:54.026Z,2.50
2019-02-16T00:22:48.071Z,2.60
2019-02-16T00:27:43.757Z,2.40
2019-02-16T00:32:39.880Z,2.40
2019-02-16T00:37:38.097Z,2.40
2019-02-16T00:42:32.265Z,2.30
2019-02-16T00:47:26.283Z,2.30
2019-02-16T00:52:28.122Z,2.20
2019-02-16T00:57:19.254Z,2.10
2019-02-16T01:02:33.876Z,2.20
2019-02-16T01:07:28.268Z,2.10
2019-02-16T01:12:22.567Z,2.00
2019-02-16T01:17:16.948Z,1.90
2019-02-16T01:22:17.695Z,2.00
2019-02-16T01:27:07.486Z,2.00
2019-02-16T01:32:02.016Z,1.90
2019-02-16T01:36:56.214Z,2.00
2019-02-16T01:41:50.586Z,1.90
2019-02-16T01:46:45.017Z,1.80
2019-02-16T01:51:38.932Z,1.90
2019-02-16T01:56:34.570Z,1.90
2019-02-16T02:01:28.502Z,2.00
2019-02-16T02:06:22.831Z,1.90
2019-02-16T02:11:20.458Z,1.90
2019-02-16T02:16:19.117Z,1.80
2019-02-16T02:21:12.998Z,1.80
2019-02-16T02:26:11.120Z,1.80
2019-02-16T02:31:08.720Z,1.80
2019-02-16T02:36:05.782Z,1.70
2019-02-16T02:41:01.737Z,1.80
2019-02-16T02:45:55.555Z,1.60
2019-02-16T02:50:50.058Z,1.50
2019-02-16T02:55:44.021Z,1.40
2019-02-16T03:00:38.351Z,1.60
2019-02-16T03:05:35.401Z,1.60
2019-02-16T03:10:29.622Z,1.60
2019-02-16T03:15:23.748Z,1.40
2019-02-16T03:20:17.804Z,1.30
2019-02-16T03:25:11.901Z,1.10
2019-02-16T03:30:27.470Z,1.00
2019-02-16T03:35:34.371Z,1.00
2019-02-16T03:40:28.490Z,0.90
2019-02-16T03:45:24.183Z,1.00
2019-02-16T03:50:21.401Z,0.90
2019-02-16T03:55:15.550Z,0.80
2019-02-16T04:00:12.670Z,0.70
2019-02-16T04:05:10.001Z,0.70
2019-02-16T04:10:04.701Z,0.90
2019-02-16T04:14:58.718Z,0.80
2019-02-16T04:19:52.587Z,0.80
2019-02-16T04:24:50.619Z,0.90
2019-02-16T04:29:44.663Z,1.00
2019-02-16T04:34:41.939Z,0.90
2019-02-16T04:39:36.266Z,0.80
2019-02-16T04:44:32.607Z,0.90
2019-02-16T04:49:26.436Z,0.90
2019-02-16T04:54:23.355Z,0.90
2019-02-16T04:59:17.368Z,0.80
2019-02-16T05:04:13.400Z,0.80
2019-02-16T05:09:10.219Z,0.60
2019-02-16T05:14:07.825Z,0.60
2019-02-16T05:19:04.526Z,0.60
2019-02-16T05:24:01.857Z,0.60
2019-02-16T05:28:59.017Z,0.60
2019-02-16T05:33:53.606Z,0.60
2019-02-16T05:38:48.113Z,0.80
2019-02-16T05:43:43.389Z,0.80
2019-02-16T05:48:42.756Z,0.90
2019-02-16T05:53:38.946Z,0.90
2019-02-16T05:58:33.258Z,0.70
2019-02-16T06:03:27.410Z,0.60
2019-02-16T06:08:21.642Z,0.60
2019-02-16T06:13:16.365Z,0.60
2019-02-16T06:18:15.528Z,0.60
2019-02-16T06:23:09.745Z,0.80
2019-02-16T06:28:07.117Z,0.80
2019-02-16T06:33:01.930Z,0.80
2019-02-16T06:38:00.083Z,0.90
2019-02-16T06:42:54.298Z,0.90
2019-02-16T06:47:49.567Z,1.30
2019-02-16T06:52:43.792Z,1.90
2019-02-16T06:57:38.851Z,3.00
2019-02-16T07:02:32.945Z,4.40
2019-02-16T07:07:27.025Z,5.60
2019-02-16T07:12:25.474Z,6.20
2019-02-16T07:17:24.533Z,5.20
2019-02-16T07:22:18.758Z,5.60
2019-02-16T07:27:13.134Z,7.30
2019-02-16T07:32:07.801Z,9.70
2019-02-16T07:37:02.040Z,12.20
2019-02-16T07:41:57.763Z,12.90
2019-02-16T07:46:56.662Z,13.80
2019-02-16T07:51:55.904Z,17.00
2019-02-16T07:57:00.124Z,19.40
2019-02-16T08:01:56.822Z,18.80
2019-02-16T08:06:53.126Z,19.40
2019-02-16T08:12:04.282Z,18.80
2019-02-16T08:17:10.339Z,18.90
2019-02-16T08:22:05.999Z,20.80
2019-02-16T08:27:08.821Z,20.00
2019-02-16T08:32:10.706Z,18.40
2019-02-16T08:37:26.374Z,17.10
2019-02-16T08:42:24.677Z,15.20
2019-02-16T08:47:31.776Z,15.60
2019-02-16T08:52:44.737Z,16.50
2019-02-16T08:58:00.098Z,15.60
2019-02-16T09:03:03.623Z,14.70
2019-02-16T09:07:59.463Z,15.70
2019-02-16T09:12:54.978Z,16.70
2019-02-16T09:18:16.221Z,18.30
2019-02-16T09:23:07.081Z,21.60
2019-02-16T09:28:07.037Z,25.30
2019-02-16T09:33:09.480Z,25.10
2019-02-16T09:38:12.514Z,22.90
2019-02-16T09:43:21.034Z,20.30
2019-02-16T09:48:21.585Z,21.80
2019-02-16T09:53:35.698Z,26.00
2019-02-16T09:58:44.750Z,28.20
2019-02-16T10:03:58.518Z,29.50
2019-02-16T10:09:13.105Z,29.80
2019-02-16T10:14:09.114Z,31.30
2019-02-16T10:19:08.937Z,33.00
2019-02-16T10:24:05.638Z,32.10
2019-02-16T10:29:04.440Z,30.00
2019-02-16T10:34:21.758Z,30.40
2019-02-16T10:39:20.858Z,29.90
2019-02-16T10:44:28.296Z,29.00
2019-02-16T10:49:29.969Z,27.50
2019-02-16T10:54:29.622Z,28.70
2019-02-16T10:59:27.699Z,29.20
2019-02-16T11:04:23.311Z,29.50
2019-02-16T11:09:39.322Z,30.50
2019-02-16T11:14:37.275Z,31.10
2019-02-16T11:19:35.879Z,32.50
2019-02-16T11:24:47.692Z,33.60
2019-02-16T11:29:44.597Z,35.60
2019-02-16T11:34:49.524Z,35.00
2019-02-16T11:39:53.896Z,34.70
2019-02-16T11:45:06.285Z,34.80
2019-02-16T11:50:10.391Z,34.30
2019-02-16T11:55:10.153Z,33.20
2019-02-16T12:00:13.880Z,30.80
2019-02-16T12:05:17.078Z,26.90
2019-02-16T12:10:18.810Z,24.30
2019-02-16T12:15:15.852Z,22.10
2019-02-16T12:20:18.017Z,20.20
2019-02-16T12:25:30.213Z,18.90
2019-02-16T12:30:42.755Z,18.00
2019-02-16T12:35:53.026Z,17.30
2019-02-16T12:40:50.086Z,17.10
2019-02-16T12:45:51.193Z,17.00
2019-02-16T12:50:53.243Z,16.80
2019-02-16T12:55:51.804Z,16.60
2019-02-16T13:00:58.174Z,16.60
2019-02-16T13:05:54.782Z,16.70
2019-02-16T13:10:50.588Z,16.70
2019-02-16T13:15:46.187Z,16.70
2019-02-16T13:20:47.301Z,16.80
2019-02-16T13:26:00.891Z,16.80
2019-02-16T13:31:04.169Z,16.80
2019-02-16T13:35:59.954Z,16.90
2019-02-16T13:40:58.006Z,17.00
2019-02-16T13:46:12.507Z,17.00
2019-02-16T13:51:18.301Z,17.00
2019-02-16T13:56:14.113Z,17.10
2019-02-16T14:01:10.045Z,17.10
2019-02-16T14:06:11.032Z,17.10
2019-02-16T14:11:13.022Z,17.10
2019-02-16T14:16:08.966Z,17.10
2019-02-16T14:21:06.442Z,17.10
2019-02-16T14:26:10.260Z,17.10
2019-02-16T14:31:09.391Z,17.00
2019-02-16T14:36:08.572Z,16.90
2019-02-16T14:41:05.841Z,16.90
2019-02-16T14:45:59.802Z,16.80
2019-02-16T14:50:54.029Z,16.70
2019-02-16T14:55:53.844Z,16.60
2019-02-16T15:00:54.026Z,16.60
2019-02-16T15:05:49.333Z,16.50
2019-02-16T15:11:06.049Z,16.30
2019-02-16T15:16:00.314Z,16.20
2019-02-16T15:20:55.463Z,16.10
2019-02-16T15:25:49.357Z,16.00
2019-02-16T15:30:47.545Z,15.90
2019-02-16T15:35:42.588Z,15.60
2019-02-16T15:40:37.999Z,15.40
2019-02-16T15:45:35.159Z,15.40
2019-02-16T15:50:32.272Z,15.20
2019-02-16T15:55:26.509Z,15.10
2019-02-16T16:00:22.186Z,15.10
2019-02-16T16:05:16.680Z,14.90
2019-02-16T16:10:12.422Z,14.80
2019-02-16T16:15:09.667Z,14.50
2019-02-16T16:20:14.264Z,14.30
2019-02-16T16:25:19.142Z,13.90
2019-02-16T16:30:17.747Z,13.60
2019-02-16T16:35:26.761Z,13.10
2019-02-16T16:40:38.677Z,12.70
2019-02-16T16:45:52.753Z,12.30
2019-02-16T16:51:00.170Z,12.00
2019-02-16T16:56:05.092Z,11.90
2019-02-16T17:01:05.052Z,11.60
2019-02-16T17:06:11.827Z,11.30
2019-02-16T17:11:28.067Z,11.20
2019-02-16T17:16:28.377Z,11.30
2019-02-16T17:21:24.008Z,11.10
2019-02-16T17:26:37.673Z,11.00
2019-02-16T17:31:47.445Z,10.90
2019-02-16T17:36:42.935Z,11.00
2019-02-16T17:41:42.193Z,10.80
2019-02-16T17:46:47.240Z,10.70
2019-02-16T17:51:42.744Z,10.60
2019-02-16T17:56:54.380Z,10.50
2019-02-16T18:01:57.696Z,10.30
2019-02-16T18:07:01.971Z,10.20
2019-02-16T18:12:14.238Z,10.00
2019-02-16T18:17:25.434Z,9.80
2019-02-16T18:22:25.583Z,9.70
2019-02-16T18:27:21.809Z,9.60
2019-02-16T18:32:31.087Z,9.60
2019-02-16T18:37:31.987Z,9.20
2019-02-16T18:42:35.451Z,9.10
2019-02-16T18:47:31.992Z,9.10
2019-02-16T18:52:50.121Z,8.80
2019-02-16T18:57:47.915Z,8.50
2019-02-16T19:02:44.480Z,8.40
2019-02-16T19:07:47.832Z,8.10
2019-02-16T19:12:49.666Z,7.90
2019-02-16T19:17:48.266Z,7.60
2019-02-16T19:22:59.335Z,7.40
2019-02-16T19:28:01.447Z,7.30
2019-02-16T19:33:08.488Z,7.00
2019-02-16T19:38:18.103Z,6.80
2019-02-16T19:43:28.999Z,6.70
2019-02-16T19:48:26.037Z,6.70
2019-02-16T19:53:24.753Z,6.70
2019-02-16T19:58:37.588Z,6.70
2019-02-16T20:03:51.548Z,6.80
2019-02-16T20:09:03.055Z,6.70
2019-02-16T20:14:10.972Z,6.50
2019-02-16T20:19:13.343Z,6.20
2019-02-16T20:24:14.946Z,6.10
2019-02-16T20:29:17.665Z,5.90
2019-02-16T20:34:16.637Z,5.80
2019-02-16T20:39:30.802Z,5.70
2019-02-16T20:44:27.264Z,5.50
2019-02-16T20:49:23.266Z,5.30
2019-02-16T20:54:22.096Z,5.20
2019-02-16T20:59:34.317Z,5.10
2019-02-16T21:04:36.350Z,4.90
2019-02-16T21:09:48.992Z,4.80
2019-02-16T21:15:03.625Z,4.60
2019-02-16T21:20:07.399Z,4.60
2019-02-16T21:25:22.613Z,4.50
2019-02-16T21:30:21.386Z,4.40
2019-02-16T21:35:34.576Z,4.30
2019-02-16T21:40:45.712Z,4.20
2019-02-16T21:45:48.659Z,4.10
2019-02-16T21:50:50.397Z,4.00
2019-02-16T21:56:10.027Z,3.90
2019-02-16T22:01:12.074Z,3.90
2019-02-16T22:06:09.897Z,3.80
2019-02-16T22:11:24.067Z,3.70
2019-02-16T22:16:19.139Z,3.70
2019-02-16T22:21:13.343Z,3.60
2019-02-16T22:26:12.284Z,3.60
2019-02-16T22:31:09.086Z,3.40
2019-02-16T22:36:05.999Z,3.50
2019-02-16T22:41:00.795Z,3.40
2019-02-16T22:45:55.507Z,3.30
2019-02-16T22:50:52.582Z,3.20
2019-02-16T22:55:46.782Z,3.10
2019-02-16T23:00:56.815Z,3.20
2019-02-16T23:05:52.584Z,3.00
2019-02-16T23:10:46.960Z,2.90
2019-02-16T23:15:41.592Z,2.80
2019-02-16T23:20:36.012Z,2.80
2019-02-16T23:25:29.990Z,2.80
2019-02-16T23:30:36.467Z,2.70
2019-02-16T23:35:36.909Z,2.60
2019-02-16T23:40:33.961Z,2.60
2019-02-16T23:45:32.847Z,2.60
2019-02-16T23:50:28.042Z,2.50
2019-02-16T23:55:25.167Z,2.70
